createdAt,value
2016-11-04T00:02:55.385Z,3.76
2016-11-04T00:06:32.347Z,3.64
2016-11-04T00:10:09.753Z,3.53
2016-11-04T00:13:46.562Z,3.58
2016-11-04T00:17:23.270Z,3.55
2016-11-04T00:21:06.443Z,3.66
2016-11-04T00:24:46.538Z,3.76
2016-11-04T00:28:30.261Z,4.16
2016-11-04T00:32:34.678Z,3.94
2016-11-04T00:36:41.665Z,3.76
2016-11-04T00:40:17.916Z,3.64
2016-11-04T00:43:56.761Z,3.68
2016-11-04T00:47:34.368Z,3.94
2016-11-04T00:51:11.457Z,3.77
2016-11-04T00:54:48.429Z,3.68
2016-11-04T00:58:25.137Z,3.59
2016-11-04T01:02:02.635Z,3.61
2016-11-04T01:05:39.520Z,3.49
2016-11-04T01:09:16.412Z,3.22
2016-11-04T01:12:53.341Z,3.3
2016-11-04T01:16:30.337Z,3.06
2016-11-04T01:20:07.654Z,3.01
2016-11-04T01:23:44.548Z,2.97
2016-11-04T01:27:21.390Z,3.11
2016-11-04T01:30:58.596Z,3
2016-11-04T01:38:50.881Z,2.98
2016-11-04T01:42:27.298Z,2.91
2016-11-04T01:46:03.621Z,2.9
2016-11-04T01:49:40.789Z,2.91
2016-11-04T01:53:17.502Z,2.94
2016-11-04T01:56:54.409Z,2.83
2016-11-04T02:00:30.700Z,2.73
2016-11-04T02:04:06.807Z,2.82
2016-11-04T02:07:42.968Z,3.22
2016-11-04T02:11:20.067Z,3.41
2016-11-04T02:14:56.240Z,3.3
2016-11-04T02:18:32.894Z,3
2016-11-04T02:22:09.233Z,2.98
2016-11-04T02:25:46.472Z,3
2016-11-04T02:34:37.115Z,3.59
2016-11-04T02:38:13.858Z,3.77
2016-11-04T02:41:50.486Z,3.68
2016-11-04T02:45:22.318Z,3.55
2016-11-04T02:49:00.008Z,3.56
2016-11-04T02:52:36.332Z,3.76
2016-11-04T02:56:47.145Z,3.77
2016-11-04T03:00:23.637Z,3.85
2016-11-04T03:03:59.458Z,3.89
2016-11-04T03:07:36.541Z,4.03
2016-11-04T03:11:12.574Z,4.14
2016-11-04T03:14:51.125Z,4.21
2016-11-04T03:19:00.524Z,4.12
2016-11-04T03:22:34.582Z,4.28
2016-11-04T03:26:11.232Z,4.06
2016-11-04T03:29:49.365Z,4.32
2016-11-04T03:34:00.001Z,4.32
2016-11-04T03:38:06.423Z,4.3
2016-11-04T03:41:42.704Z,4.27
2016-11-04T03:45:19.159Z,4.32
2016-11-04T03:48:55.303Z,4.2
2016-11-04T03:52:33.418Z,3.82
2016-11-04T03:56:10.043Z,3.73
2016-11-04T03:59:46.972Z,3.37
2016-11-04T04:03:52.844Z,3.4
2016-11-04T04:07:29.074Z,3.55
2016-11-04T04:11:05.546Z,3.58
2016-11-04T04:14:42.491Z,3.92
2016-11-04T04:18:18.634Z,4.09
2016-11-04T04:21:36.232Z,4.13
2016-11-04T04:25:12.539Z,4.4
2016-11-04T04:28:49.393Z,4.39
2016-11-04T04:32:26.003Z,4.4
2016-11-04T04:36:24.471Z,4.36
2016-11-04T04:40:04.204Z,4.42
2016-11-04T04:43:42.746Z,4.42
2016-11-04T04:47:22.699Z,4.4
2016-11-04T04:50:59.727Z,4.4
2016-11-04T04:54:40.257Z,4.42
2016-11-04T04:58:40.395Z,4.42
2016-11-04T05:02:18.412Z,4.5
2016-11-04T05:05:56.044Z,4.39
2016-11-04T05:09:33.082Z,3.99
2016-11-04T05:16:49.072Z,3.86
2016-11-04T05:20:26.490Z,5.13
2016-11-04T05:24:03.443Z,4.52
2016-11-04T05:27:41.051Z,4.42
2016-11-04T05:31:19.122Z,4.28
2016-11-04T05:34:56.738Z,4.13
2016-11-04T05:38:33.841Z,4.09
2016-11-04T05:42:10.592Z,4.09
2016-11-04T05:45:47.218Z,4.13
2016-11-04T05:49:24.172Z,4.21
2016-11-04T05:53:00.367Z,4.13
2016-11-04T05:56:37.826Z,4.22
2016-11-04T06:00:14.421Z,4.24
2016-11-04T06:03:51.366Z,4.28
2016-11-04T06:07:29.107Z,4.27
2016-11-04T06:11:05.961Z,4.2
2016-11-04T06:14:42.666Z,4.27
2016-11-04T06:18:15.178Z,4.21
2016-11-04T06:21:51.379Z,4.28
2016-11-04T06:25:27.952Z,4
2016-11-04T06:29:05.794Z,4.02
2016-11-04T06:32:42.479Z,3.81
2016-11-04T06:36:18.965Z,3.81
2016-11-04T06:39:57.124Z,3.94
2016-11-04T06:43:33.349Z,3.95
2016-11-04T06:47:10.615Z,4
2016-11-04T06:50:47.056Z,3.76
2016-11-04T06:54:24.410Z,3.94
2016-11-04T06:58:01.380Z,3.91
2016-11-04T07:01:39.719Z,4.06
2016-11-04T07:05:15.906Z,4.06
2016-11-04T07:08:53.225Z,4.22
2016-11-04T07:12:29.218Z,4.13
2016-11-04T07:16:06.163Z,4.04
2016-11-04T07:20:11.210Z,4.09
2016-11-04T07:58:07.353Z,5.15
2016-11-04T08:01:39.494Z,5.05
2016-11-04T08:04:56.909Z,5.16
2016-11-04T08:08:29.036Z,5.22
2016-11-04T08:11:46.293Z,5.33
2016-11-04T08:15:18.292Z,5.26
2016-11-04T08:18:50.111Z,5.31
2016-11-04T08:22:21.733Z,5.62
2016-11-04T08:29:25.220Z,5.73
2016-11-04T08:33:11.853Z,5.98
2016-11-04T08:36:44.226Z,5.69
2016-11-04T08:43:47.541Z,5.76
2016-11-04T08:47:20.452Z,5.95
2016-11-04T08:51:07.127Z,5.91
2016-11-04T08:54:54.086Z,5.95
2016-11-04T08:58:40.585Z,5.91
2016-11-04T09:02:26.910Z,5.99
2016-11-04T09:05:43.970Z,6.31
2016-11-04T09:09:01.111Z,6.47
2016-11-04T09:12:18.432Z,6.6
2016-11-04T09:15:35.716Z,6.65
2016-11-04T09:18:53.534Z,6.74
2016-11-04T09:22:25.343Z,6.64
2016-11-04T09:25:42.838Z,6.72
2016-11-04T09:28:59.721Z,6.92
2016-11-04T09:32:17.131Z,6.87
2016-11-04T09:35:49.151Z,6.92
2016-11-04T09:39:35.624Z,7.13
2016-11-04T09:42:52.889Z,7.14
2016-11-04T09:46:10.329Z,7.29
2016-11-04T09:49:27.896Z,6.97
2016-11-04T09:52:45.066Z,7.23
2016-11-04T09:56:01.775Z,7.43
2016-11-04T09:59:20.081Z,7.46
2016-11-04T10:02:37.377Z,7.77
2016-11-04T10:05:54.275Z,7.66
2016-11-04T10:09:11.490Z,7.69
2016-11-04T10:12:28.100Z,7.61
2016-11-04T10:15:46.410Z,7.69
2016-11-04T10:19:03.863Z,7.84
2016-11-04T10:22:21.237Z,7.95
2016-11-04T10:25:38.155Z,7.8
2016-11-04T10:28:55.173Z,7.81
2016-11-04T10:32:12.250Z,7.67
2016-11-04T10:35:29.488Z,7.93
2016-11-04T10:38:46.064Z,7.91
2016-11-04T10:42:02.834Z,7.84
2016-11-04T10:45:20.046Z,8.17
2016-11-04T10:48:37.371Z,8.05
2016-11-04T10:51:54.301Z,7.95
2016-11-04T10:55:11.083Z,8.14
2016-11-04T10:58:28.085Z,8.18
2016-11-04T11:01:45.039Z,8.2
2016-11-04T11:05:02.187Z,8.36
2016-11-04T11:08:18.979Z,8.24
2016-11-04T11:11:36.150Z,8.46
2016-11-04T11:14:53.236Z,8.34
2016-11-04T11:18:10.112Z,8.56
2016-11-04T11:21:27.057Z,8.56
2016-11-04T11:24:43.935Z,8.46
2016-11-04T11:28:01.031Z,8.38
2016-11-04T11:31:17.312Z,8.61
2016-11-04T11:34:34.487Z,8.74
2016-11-04T11:37:51.128Z,8.84
2016-11-04T11:41:08.017Z,9.05
2016-11-04T11:44:24.912Z,8.86
2016-11-04T11:47:42.136Z,8.79
2016-11-04T11:50:58.909Z,8.72
2016-11-04T11:54:15.727Z,8.66
2016-11-04T11:57:33.087Z,8.75
2016-11-04T12:00:49.834Z,8.77
2016-11-04T12:04:06.813Z,8.96
2016-11-04T12:07:24.421Z,8.81
2016-11-04T12:10:41.000Z,8.72
2016-11-04T12:13:57.908Z,8.57
2016-11-04T12:17:14.763Z,8.61
2016-11-04T12:20:46.532Z,8.86
2016-11-04T12:24:03.168Z,8.79
2016-11-04T12:27:21.033Z,8.99
2016-11-04T12:30:37.689Z,8.96
2016-11-04T12:33:54.940Z,8.78
2016-11-04T12:37:11.748Z,8.95
2016-11-04T12:40:29.325Z,8.92
2016-11-04T12:43:45.902Z,9.24
2016-11-04T12:47:03.568Z,9.22
2016-11-04T12:51:19.909Z,9.29
2016-11-04T12:54:37.216Z,9.29
2016-11-04T12:57:54.905Z,9.48
2016-11-04T13:01:42.528Z,9.34
2016-11-04T13:04:59.083Z,9.34
2016-11-04T13:08:16.172Z,9.48
2016-11-04T13:11:33.476Z,9.33
2016-11-04T13:14:51.210Z,9.18
2016-11-04T13:29:06.096Z,9.39
2016-11-04T13:36:24.620Z,9.37
2016-11-04T13:39:41.880Z,9.24
2016-11-04T13:42:58.367Z,9.33
2016-11-04T13:46:15.589Z,9.33
2016-11-04T13:49:32.215Z,9.34
2016-11-04T13:57:05.071Z,9.39
2016-11-04T14:00:22.662Z,9.45
2016-11-04T14:03:39.636Z,9.47
2016-11-04T14:06:57.159Z,9.45
2016-11-04T14:10:14.118Z,9.47
2016-11-04T14:13:30.814Z,9.4
2016-11-04T14:16:48.606Z,9.36
2016-11-04T14:20:05.885Z,9.34
2016-11-04T14:23:23.567Z,9.3
2016-11-04T14:26:40.505Z,9.42
2016-11-04T14:29:57.781Z,9.44
2016-11-04T14:33:15.034Z,9.37
2016-11-04T14:36:31.728Z,9.33
2016-11-04T14:39:48.778Z,9.4
2016-11-04T14:43:06.048Z,9.44
2016-11-04T14:46:23.112Z,9.47
2016-11-04T14:49:40.113Z,9.48
2016-11-04T14:52:57.774Z,9.47
2016-11-04T14:56:15.142Z,9.4
2016-11-04T14:59:33.001Z,9.36
2016-11-04T15:02:50.220Z,9.3
2016-11-04T15:06:07.321Z,9.16
2016-11-04T15:09:24.090Z,9.12
2016-11-04T15:12:41.369Z,9.11
2016-11-04T15:15:58.270Z,9.16
2016-11-04T15:19:15.422Z,9.24
2016-11-04T15:22:47.388Z,9.16
2016-11-04T15:26:33.729Z,9.03
2016-11-04T15:29:50.922Z,9.02
2016-11-04T15:33:37.965Z,9.02
2016-11-04T15:37:09.698Z,8.81
2016-11-04T15:40:56.069Z,8.87
2016-11-04T15:44:13.399Z,8.74
2016-11-04T15:47:30.323Z,8.77
2016-11-04T15:50:47.190Z,8.77
2016-11-04T15:54:05.191Z,8.77
2016-11-04T15:57:26.280Z,8.56
2016-11-04T16:00:44.700Z,8.54
2016-11-04T16:04:02.681Z,8.54
2016-11-04T16:37:30.718Z,8.56
2016-11-04T16:41:09.419Z,8.61
2016-11-04T16:44:47.560Z,8.63
2016-11-04T16:48:25.085Z,8.75
2016-11-04T16:52:02.225Z,8.77
2016-11-04T16:55:38.506Z,8.74
2016-11-04T16:59:16.159Z,8.66
2016-11-04T17:02:52.754Z,8.6
2016-11-04T17:06:29.053Z,8.44
2016-11-04T17:10:07.231Z,8.45
2016-11-04T17:13:43.543Z,8.64
2016-11-04T17:17:19.862Z,8.45
2016-11-04T17:20:56.980Z,8.49
2016-11-04T17:25:03.253Z,8.42
2016-11-04T17:33:24.845Z,8.5
2016-11-04T17:37:01.680Z,8.26
2016-11-04T17:40:37.949Z,8.36
2016-11-04T17:44:14.289Z,8.36
2016-11-04T17:48:17.945Z,8.34
2016-11-04T17:51:57.538Z,8.21
2016-11-04T17:55:33.598Z,8.35
2016-11-04T17:59:11.056Z,8.34
2016-11-04T18:02:47.094Z,8.11
2016-11-04T18:06:24.407Z,8.09
2016-11-04T18:10:00.632Z,8.06
2016-11-04T18:13:37.747Z,8.16
2016-11-04T18:33:16.644Z,8.09
2016-11-04T18:36:59.346Z,8.13
2016-11-04T18:45:11.442Z,8.06
2016-11-04T18:48:47.270Z,8.01
2016-11-04T18:52:23.265Z,8.2
2016-11-04T18:55:59.188Z,8.21
2016-11-04T18:59:36.100Z,8.39
2016-11-04T19:03:12.934Z,8.41
2016-11-04T19:15:37.055Z,8.5
2016-11-04T19:19:13.092Z,8.41
2016-11-04T19:22:50.586Z,8.35
2016-11-04T19:26:27.216Z,8.32
2016-11-04T19:30:03.716Z,8.59
2016-11-04T19:33:41.092Z,8.72
2016-11-04T19:37:19.023Z,8.53
2016-11-04T19:40:55.694Z,8.59
2016-11-04T19:44:31.493Z,8.56
2016-11-04T19:48:08.108Z,8.46
2016-11-04T19:51:45.616Z,8.53
2016-11-04T19:55:21.791Z,8.56
2016-11-04T19:58:59.313Z,8.63
2016-11-04T20:02:35.529Z,8.61
2016-11-04T20:06:12.991Z,8.72
2016-11-04T20:09:49.774Z,8.72
2016-11-04T20:13:29.255Z,8.77
2016-11-04T20:17:07.465Z,8.79
2016-11-04T20:20:43.564Z,8.74
2016-11-04T20:24:20.352Z,8.75
2016-11-04T20:27:57.624Z,8.64
2016-11-04T20:32:03.177Z,8.59
2016-11-04T20:35:41.921Z,8.68
2016-11-04T20:39:18.850Z,8.66
2016-11-04T20:42:55.730Z,8.6
2016-11-04T20:56:52.530Z,8.54
2016-11-04T21:00:28.643Z,8.5
2016-11-04T21:04:05.315Z,8.44
2016-11-04T21:08:42.955Z,8.35
2016-11-04T21:12:19.247Z,8.34
2016-11-04T21:19:39.917Z,8.41
2016-11-04T21:23:45.395Z,8.41
2016-11-04T21:27:17.856Z,8.49
2016-11-04T21:30:54.649Z,8.28
2016-11-04T21:34:31.225Z,8.32
2016-11-04T21:38:08.340Z,8.18
2016-11-04T21:42:12.703Z,8.14
2016-11-04T21:46:18.090Z,8.21
2016-11-04T21:49:34.605Z,8.16
2016-11-04T21:53:10.630Z,8.06
2016-11-04T22:26:30.400Z,8.18
2016-11-04T22:30:35.401Z,8.03
2016-11-04T22:43:36.969Z,8.02
2016-11-04T22:46:53.900Z,8.03
2016-11-04T22:50:11.030Z,7.95
2016-11-04T22:53:28.144Z,7.84
2016-11-04T22:56:45.565Z,8.08
2016-11-04T23:00:02.731Z,8.05
2016-11-04T23:03:19.493Z,8.03
2016-11-04T23:06:36.823Z,8.05
2016-11-04T23:09:53.172Z,8.05
2016-11-04T23:13:11.820Z,8.05
2016-11-04T23:16:28.902Z,8.02
2016-11-04T23:19:46.301Z,8.05
2016-11-04T23:23:03.348Z,8.11
2016-11-04T23:26:20.504Z,8.05
2016-11-04T23:29:37.130Z,8.17
2016-11-04T23:32:54.282Z,8.08
2016-11-04T23:36:10.884Z,7.81
2016-11-04T23:39:27.631Z,7.64
2016-11-04T23:42:44.720Z,7.72
2016-11-04T23:46:01.482Z,7.75
2016-11-04T23:49:17.836Z,7.84
2016-11-04T23:52:35.228Z,7.91
2016-11-04T23:55:51.557Z,7.93
2016-11-04T23:59:08.980Z,7.99
